• Join FlightAware (Why Join?)
  • Login
  • US Flag 
11:11AM EDT


 

Airport Tracker/Info


-or-


 

Live Flight TrackerFlight Track Log ✈ DAL1562 ✈ 15-Apr-2013 ✈ KPHL - KDTW

Flight Track Log - Related Links

Times and Time Zones

All times are in EDT time to prevent confusion due to time zone crossing. See the DAL1562 flight status page for this flight to view local times or setup timezone preferences in your user account.

Time Position Orientation Groundspeed Altitude Reporting Facility
EDT Latitude Longitude Course Direction KTS MPH feet Rate Location/Type
05:16PM 39.8753 -75.2231 69° East 155 178 800  Level FAA TRACON SMA TRACON (SMA)
05:16PM 39.8806 -75.2047 69° East 169 194 1,400 1,500 Climbing FAA TRACON SMA TRACON (SMA)
05:16PM 39.8883 -75.1819 66° East 228 262 1,800 1,920 Climbing FAA TRACON SMA TRACON (SMA)
05:17PM 39.8967 -75.1567 67° East 255 293 2,700 3,120 Climbing FAA TRACON SMA TRACON (SMA)
05:17PM 39.9106 -75.1256 60° Northeast 278 320 3,900 3,300 Climbing FAA TRACON SMA TRACON (SMA)
05:17PM 39.9308 -75.1122 27° Northeast 277 319 4,900 3,120 Climbing FAA TRACON SMA TRACON (SMA)
05:18PM 39.9553 -75.1147 356° North 295 339 6,000 3,720 Climbing FAA TRACON SMA TRACON (SMA)
05:18PM 39.9769 -75.1392 319° Northwest 269 310 7,400 3,600 Climbing FAA TRACON SMA TRACON (SMA)
05:18PM 39.9822 -75.1681 283° West 267 307 8,400 2,820 Climbing FAA TRACON SMA TRACON (SMA)
05:19PM 39.9808 -75.1981 267° West 280 322 9,300 2,220 Climbing FAA TRACON SMA TRACON (SMA)
05:19PM 39.9744 -75.2375 258° West 284 327 9,900 780 Climbing FAA TRACON SMA TRACON (SMA)
05:20PM 39.9656 -75.3122 261° West 338 389 10,100 180 Climbing FAA TRACON SMA TRACON (SMA)
05:20PM 39.9611 -75.3533 262° West 352 405 10,100 -180 Level FAA TRACON SMA TRACON (SMA)
05:20PM 39.9564 -75.3892 260° West 354 407 10,000  Descending FAA TRACON SMA TRACON (SMA)
05:21PM 39.9494 -75.4411 260° West 353 406 10,100 120 Climbing FAA TRACON SMA TRACON (SMA)
05:21PM 39.9450 -75.4794 261° West 351 404 10,100  Level FAA TRACON SMA TRACON (SMA)
05:21PM 39.9392 -75.5247 260° West 351 404 10,100  Level FAA TRACON SMA TRACON (SMA)
05:22PM 39.9342 -75.5647 261° West 350 403 10,100  Level FAA TRACON SMA TRACON (SMA)
05:22PM 39.9275 -75.6039 257° West 350 403 10,100 300 Level FAA TRACON SMA TRACON (SMA)
05:22PM 39.9219 -75.6411 259° West 350 403 10,300 1,920 Climbing FAA TRACON SMA TRACON (SMA)
05:23PM 39.9169 -75.6900 262° West 353 406 11,400 3,000 Climbing FAA TRACON SMA TRACON (SMA)
05:23PM 39.9161 -75.7303 268° West 365 420 12,300 2,820 Climbing FAA TRACON SMA TRACON (SMA)
05:23PM 39.9156 -75.7797 269° West 364 419 13,300 2,820 Climbing FAA TRACON SMA TRACON (SMA)
05:24PM 39.9150 -75.8219 269° West 368 423 14,200 2,220 Climbing FAA TRACON SMA TRACON (SMA)
05:24PM 39.9139 -75.8633 268° West 371 427 14,800 1,320 Climbing FAA TRACON SMA TRACON (SMA)
05:24PM 39.9133 -75.9128 269° West 371 427 15,100 900 Climbing FAA TRACON SMA TRACON (SMA)
05:25PM 39.9122 -75.9561 268° West 370 426 15,400 1,320 Climbing FAA TRACON SMA TRACON (SMA)
05:25PM 39.9114 -75.9975 269° West 372 428 16,000 1,680 Climbing FAA TRACON SMA TRACON (SMA)
05:25PM 39.9111 -76.0333 269° West 376 433 16,500 1,980 Climbing FAA TRACON SMA TRACON (SMA)
05:26PM 39.9097 -76.0956 268° West 393 452 17,300 2,100 Climbing FAA TRACON SMA TRACON (SMA)
05:26PM 39.9083 -76.1411 268° West 403 464 17,900 1,020 Climbing FAA TRACON SMA TRACON (SMA)
05:26PM 39.9078 -76.1756 269° West 408 470 18,000 120 Climbing FAA TRACON SMA TRACON (SMA)
05:27PM 39.9078 -76.1756 123° Southeast 408 470 18,000 1,980 Level FAA TRACON SMA TRACON (SMA)
05:28PM 39.9200 -76.4606 273° West 431 496 21,700 2,640 Climbing New York Center
05:29PM 39.9269 -76.6153 273° West 431 496 24,600 2,340 Climbing New York Center
05:30PM 39.9367 -76.7544 275° West 415 478 26,500 1,620 Climbing New York Center
05:31PM 39.9647 -76.8975 284° West 409 471 28,000 1,500 Climbing New York Center
05:32PM 39.9842 -77.0431 280° West 409 471 29,600 960 Climbing New York Center
05:33PM 39.9972 -77.1906 277° West 414 476 30,000 180 Climbing New York Center
05:34PM 40.0094 -77.3461 276° West 425 489 30,000  Level New York Center
05:36PM 40.0383 -77.6706 277° West 430 495 30,000  Level Cleveland Center
05:37PM 40.0503 -77.8192 276° West 418 481 30,000  Level Cleveland Center
05:38PM 40.0600 -77.9653 275° West 418 481 30,000  Level Cleveland Center
05:39PM 40.0717 -78.1142 276° West 418 481 30,000  Level Cleveland Center
05:40PM 40.0997 -78.2597 284° West 418 481 30,000  Level Cleveland Center
05:41PM 40.1339 -78.4025 287° West 418 481 30,000  Level Cleveland Center
05:42PM 40.1678 -78.5481 287° West 413 475 30,000  Level Cleveland Center
05:43PM 40.2014 -78.6883 287° West 413 475 30,000  Level Cleveland Center
05:44PM 40.2350 -78.8317 287° West 413 475 30,000  Level Cleveland Center
05:45PM 40.2683 -78.9750 287° West 413 475 30,000  Level Cleveland Center
05:46PM 40.3036 -79.1158 288° West 413 475 30,000  Level Cleveland Center
05:47PM 40.3367 -79.2567 287° West 413 475 30,000  Level Cleveland Center
05:48PM 40.3736 -79.3975 289° West 413 475 30,000  Level Cleveland Center
05:49PM 40.4064 -79.5417 287° West 413 475 30,000  Level Cleveland Center
05:50PM 40.4389 -79.6856 287° West 418 481 30,000  Level Cleveland Center
05:51PM 40.4733 -79.8269 288° West 418 481 30,000  Level Cleveland Center
05:52PM 40.5053 -79.9714 286° West 418 481 30,000  Level Cleveland Center
05:53PM 40.5353 -80.1158 285° West 418 481 30,000  Level Cleveland Center
05:54PM 40.5669 -80.2606 286° West 413 475 30,000  Level Cleveland Center
05:55PM 40.6006 -80.3861 289° West 413 475 30,000  Level Cleveland Center
05:56PM 40.6633 -80.5311 300° West 413 475 30,000  Level Cleveland Center
05:57PM 40.7281 -80.6597 304° West 418 481 30,000  Level Cleveland Center
05:58PM 40.7861 -80.7694 305° West 423 487 30,000  Level Cleveland Center
05:59PM 40.8483 -80.8989 302° West 418 481 30,000  Level Cleveland Center
06:00PM 40.9106 -81.0256 303° West 418 481 30,000 -540 Level Cleveland Center
06:01PM 40.9744 -81.1689 301° West 412 474 29,000 -1,020 Descending Cleveland Center
06:02PM 41.0364 -81.2989 302° West 412 474 28,000 -660 Descending Cleveland Center
06:03PM 41.1000 -81.4289 303° West 412 474 27,700 -900 Descending Cleveland Center
06:04PM 41.1556 -81.5428 303° West 412 474 26,300 -1,500 Descending Cleveland Center
06:05PM 41.2189 -81.6789 302° West 419 482 24,800 -960 Descending Cleveland Center
06:06PM 41.2819 -81.8156 302° West 430 495 24,400 -420 Descending Cleveland Center
06:07PM 41.3453 -81.9467 303° West 430 495 24,000 -240 Descending Cleveland Center
06:08PM 41.4100 -82.0947 300° West 430 495 24,000 -540 Level Cleveland Center
06:09PM 41.4708 -82.2292 301° West 430 495 23,000 -2,100 Descending Cleveland Center
06:10PM 41.5294 -82.3556 302° West 414 476 19,900 -3,360 Descending Cleveland Center
06:11PM 41.5617 -82.4231 303° West 403 464 17,900 -3,840 Descending Cleveland Center
06:11PM 41.5878 -82.4792 302° West 400 460 16,100 -3,480 Descending Cleveland Center
06:12PM 41.6461 -82.6033 302° West 400 460 12,800 -3,000 Descending Cleveland Center
06:12PM 41.6603 -82.6344 301° West 395 455 12,400 -840 Descending Cleveland Center
06:13PM 41.6961 -82.7189 300° West 381 438 12,000 -180 Descending Cleveland Center
06:14PM 41.7486 -82.8069 309° West 344 396 12,100  Climbing Cleveland Center
06:15PM 41.8056 -82.8758 318° Northwest 300 345 12,000 -60 Descending Cleveland Center
06:16PM 41.8567 -82.9389 317° Northwest 266 306 12,000  Level Cleveland Center
06:16PM 41.8747 -82.9619 316° Northwest 247 284 12,000  Level Cleveland Center
06:17PM 41.9075 -82.9994 320° Northwest 254 292 12,000  Level Cleveland Center
06:17PM 41.9217 -83.0167 318° Northwest 249 287 12,000  Level Cleveland Center
06:18PM 41.9603 -83.0628 318° Northwest 249 287 12,000 60 Level Cleveland Center
06:19PM 41.9806 -83.0861 319° Northwest 227 261 12,100  Climbing Cleveland Center
06:19PM 42.0069 -83.1178 318° Northwest 243 280 12,000 -120 Descending Cleveland Center
06:20PM 42.0272 -83.1464 314° West 226 260 12,000 12,000 Level Cleveland Center
06:20PM 42.0517 -83.1725 322° Northwest 233 268 24,000 -1,020 Climbing Cleveland Center
06:21PM 42.0719 -83.1986 316° Northwest 224 258 11,000 -9,120 Descending Cleveland Center
06:22PM 42.1369 -83.2075 354° North 237 273 11,000  Level FAA TRACON SMA TRACON (SMA)
06:22PM 42.1625 -83.2086 358° North 239 275 11,000  Level FAA TRACON SMA TRACON (SMA)
06:22PM 42.1831 -83.2094 358° North 240 276 11,000 -600 Level FAA TRACON SMA TRACON (SMA)
06:23PM 42.2028 -83.2058 North 238 274 10,600 -1,380 Descending FAA TRACON SMA TRACON (SMA)
06:23PM 42.2261 -83.1911 25° Northeast 243 280 10,100 -1,380 Descending FAA TRACON SMA TRACON (SMA)
06:23PM 42.2442 -83.1786 27° Northeast 238 274 9,700 -1,500 Descending FAA TRACON SMA TRACON (SMA)
06:24PM 42.2667 -83.1631 27° Northeast 239 275 9,100 -1,560 Descending FAA TRACON SMA TRACON (SMA)
06:24PM 42.2847 -83.1503 28° Northeast 240 276 8,700 -900 Descending FAA TRACON SMA TRACON (SMA)
06:24PM 42.3025 -83.1372 29° Northeast 238 274 8,500 -780 Descending FAA TRACON SMA TRACON (SMA)
06:25PM 42.3250 -83.1211 28° Northeast 238 274 8,200 -660 Descending FAA TRACON SMA TRACON (SMA)
06:25PM 42.3428 -83.1086 27° Northeast 236 272 8,100 -300 Descending FAA TRACON SMA TRACON (SMA)
06:25PM 42.3606 -83.0958 28° Northeast 236 272 8,000 -180 Descending FAA TRACON SMA TRACON (SMA)
06:26PM 42.3831 -83.0806 27° Northeast 236 272 8,000  Level FAA TRACON SMA TRACON (SMA)
06:26PM 42.4011 -83.0681 27° Northeast 237 273 8,000  Level FAA TRACON SMA TRACON (SMA)
06:26PM 42.4194 -83.0550 28° Northeast 238 274 8,000 -480 Level FAA TRACON SMA TRACON (SMA)
06:27PM 42.4372 -83.0425 27° Northeast 237 273 7,700 -1,080 Descending FAA TRACON SMA TRACON (SMA)
06:27PM 42.4597 -83.0272 27° Northeast 236 272 7,300 -1,080 Descending FAA TRACON SMA TRACON (SMA)
06:27PM 42.4781 -83.0319 349° North 214 246 7,000 -480 Descending FAA TRACON SMA TRACON (SMA)
06:28PM 42.4967 -83.0503 324° Northwest 212 244 7,000 -180 Level FAA TRACON SMA TRACON (SMA)
06:28PM 42.5061 -83.0678 306° West 202 232 6,900 -780 Descending FAA TRACON SMA TRACON (SMA)
06:28PM 42.5033 -83.0933 262° West 182 209 6,500 -1,080 Descending FAA TRACON SMA TRACON (SMA)
06:29PM 42.4981 -83.1106 247° West 177 204 6,200 -780 Descending FAA TRACON SMA TRACON (SMA)
06:29PM 42.4906 -83.1328 245° Southwest 171 197 6,000 -300 Descending FAA TRACON SMA TRACON (SMA)
06:29PM 42.4753 -83.1444 209° Southwest 171 197 6,000  Level FAA TRACON SMA TRACON (SMA)
06:30PM 42.4631 -83.1536 209° Southwest 172 198 6,000  Level FAA TRACON SMA TRACON (SMA)
06:30PM 42.4483 -83.1650 210° Southwest 172 198 6,000 -420 Level FAA TRACON SMA TRACON (SMA)
06:30PM 42.4361 -83.1744 210° Southwest 168 193 5,700 -1,140 Descending FAA TRACON SMA TRACON (SMA)
06:31PM 42.4208 -83.1850 207° Southwest 167 192 5,200 -1,140 Descending FAA TRACON SMA TRACON (SMA)
06:31PM 42.4083 -83.1944 209° Southwest 167 192 5,000 -840 Descending FAA TRACON SMA TRACON (SMA)
06:31PM 42.3933 -83.2056 209° Southwest 163 188 4,700 -900 Descending FAA TRACON SMA TRACON (SMA)